Melville, Louisiana
Current Conditions -  °F | °C
As of 7:55 AM on Monday 24 Nov 2014 (Local Time) from KHZR Reporting Station
Scattered Clouds Scattered Clouds  
Wind Chill: 54°   Ceiling: Unl
Heat Index: 54°   Visibility: 10mi
Dew Point: 48°   Wind: 9mph
Humidity: 80%   Direction: 320°NW
Pressure: 29.92"   Gusts: NA
Location:  30.69°N, 91.74°W
Report Text: KHZR 241355Z AUTO 32008KT 10SM SCT020 12/09 A2992 RMK AO2 T01240090
Loading
Personal Weather Stations






























Interactive Weather Map New forecast layout! Learn more

10-Day Weather Forecast

Advertisements
Track Severe Weather on mobile